Aérodrome :
LOGIN :

S'inscrire | Disclaimer

   EN    FR    IT 

 










Légende :    VFR   VFR Marginal   IFR   IFR Intensif   IFR Très Intensif
Visi : 
Plafond : 
>= 8 km
>= 3000ft
5 à 8 km
1000 à 3000 ft
1500m à 5 km
500 à 1000 ft
800 à 1500m
200 à 500 ft
< 800m
< 200 ft
Symboles :   Orages  Brouillard  Fortes neiges  Fortes précipitations  Vent > 20 kt
SIGMETs :   Divers  Orages  Givrage  Turbulence  Onde Orograph.  Cendres Volcan.







- Altitude de l'aérodrome : 53 ft
- Code IATA : HAM


EDDH - Hamburg

DERNIER METAR :
  • 210250Z 18004KT 2800 BR FEW001 BKN003 M05/M06 Q1022 R88/310195 TEMPO 3000

METARs EXPIRÉS :
  • 210220Z 18005KT 2700 BR FEW001 BKN003 M05/M05 Q1023 R88/310195 TEMPO 3000
  • 210150Z 18005KT 2700 BR BKN003 M05/M06 Q1023 R88/310195 TEMPO 3000
  • 210120Z VRB02KT 3000 BR BKN003 M05/M06 Q1023 R88/310195 TEMPO SCT003
  • 210050Z 17003KT 3000 BR BKN003 M05/M06 Q1023 R88/310195 NOSIG
  • 210020Z 16005KT 3000 BR FEW001 BKN003 M05/M05 Q1023 R88/310195 NOSIG

TAF TAF EDDH
Valide du 21 à 00h jusqu'au 22 à 06h UTC


202300Z 2100/2206 20004KT 2000 BR BKN002
BECMG 2100/2104 3500 SCT003
PROB30
TEMPO 2104/2106 BKN003
BECMG 2108/2110 22010KT
BECMG 2114/2116 23005KT
PROB30
TEMPO 2119/2206 BKN008
Pas de NOTAMs connus pour ce terrain.



MET'MAP, la Météo Aéronautique d'un coup d'oeil ! - Copyright ORBIFLY Décembre 2007 - Disclaimer

ORBIFLY MET'MAP TEAM :

Programmation & Développement : Alexandra Zaïnal
Conception & Développement : Baudouin d'Aumeries
Co-Programmation & Développement : Marc-Olivier Méhu
Soutien technique & logistique : Manuel Goepfert

Contact : metmap@orbifly.com




SOURCES & CREDITS :

   NOAA